createdAt,value
2022-11-12T00:00:33.896Z,100.00
2022-11-12T00:03:00.330Z,100.00
2022-11-12T00:05:26.740Z,100.00
2022-11-12T00:07:53.115Z,100.00
2022-11-12T00:10:19.589Z,100.00
2022-11-12T00:12:45.933Z,100.00
2022-11-12T00:15:12.514Z,100.00
2022-11-12T00:17:39.002Z,100.00
2022-11-12T00:20:06.621Z,100.00
2022-11-12T00:22:33.065Z,100.00
2022-11-12T00:24:59.478Z,100.00
2022-11-12T00:27:25.829Z,100.00
2022-11-12T00:29:52.225Z,93.33
2022-11-12T00:32:19.676Z,92.93
2022-11-12T00:34:46.065Z,91.61
2022-11-12T00:37:12.439Z,87.17
2022-11-12T00:39:38.834Z,81.12
2022-11-12T00:42:05.238Z,78.19
2022-11-12T00:44:31.648Z,79.02
2022-11-12T00:46:58.029Z,73.93
2022-11-12T00:49:24.385Z,69.43
2022-11-12T00:51:50.797Z,62.18
2022-11-12T00:54:17.329Z,58.57
2022-11-12T00:56:45.726Z,60.18
2022-11-12T00:59:12.855Z,61.10
2022-11-12T01:01:39.654Z,64.08
2022-11-12T01:04:06.287Z,67.75
2022-11-12T01:06:32.701Z,68.52
2022-11-12T01:08:59.160Z,70.63
2022-11-12T01:11:27.132Z,70.17
2022-11-12T01:13:55.679Z,69.61
2022-11-12T01:16:24.426Z,68.78
2022-11-12T01:18:55.167Z,69.55
2022-11-12T01:21:22.186Z,70.61
2022-11-12T01:23:48.664Z,72.82
2022-11-12T01:26:16.034Z,74.11
2022-11-12T01:28:42.597Z,74.21
2022-11-12T01:31:22.244Z,75.06
2022-11-12T01:33:49.836Z,76.87
2022-11-12T01:36:16.865Z,78.49
2022-11-12T01:38:43.723Z,79.11
2022-11-12T01:41:21.441Z,79.52
2022-11-12T01:43:48.112Z,78.95
2022-11-12T01:46:24.734Z,79.48
2022-11-12T01:48:59.449Z,78.47
2022-11-12T01:51:27.847Z,75.17
2022-11-12T01:53:55.639Z,74.28
2022-11-12T01:56:22.361Z,73.01
2022-11-12T01:58:49.442Z,73.39
2022-11-12T02:01:15.860Z,70.02
2022-11-12T02:03:42.239Z,68.89
2022-11-12T02:06:10.094Z,70.79
2022-11-12T02:08:36.444Z,72.39
2022-11-12T02:11:15.818Z,71.54
2022-11-12T02:13:57.811Z,72.17
2022-11-12T02:16:28.674Z,75.71
2022-11-12T02:18:55.156Z,77.51
2022-11-12T02:21:22.492Z,77.80
2022-11-12T02:23:57.910Z,76.75
2022-11-12T02:26:25.132Z,77.86
2022-11-12T02:28:51.491Z,79.08
2022-11-12T02:31:17.893Z,81.26
2022-11-12T02:33:44.243Z,80.20
2022-11-12T02:36:10.643Z,77.53
2022-11-12T02:38:37.001Z,76.32
2022-11-12T02:41:03.391Z,76.23
2022-11-12T02:43:29.835Z,74.07
2022-11-12T02:45:56.173Z,75.57
2022-11-12T02:48:22.536Z,79.34
2022-11-12T02:50:48.921Z,82.14
2022-11-12T02:53:15.292Z,84.18
2022-11-12T02:55:43.138Z,85.92
2022-11-12T02:58:09.519Z,87.30
2022-11-12T03:00:35.892Z,87.22
2022-11-12T03:03:02.550Z,87.25
2022-11-12T03:05:29.997Z,86.47
2022-11-12T03:07:58.113Z,85.49
2022-11-12T03:10:25.604Z,86.65
2022-11-12T03:12:52.926Z,86.40
2022-11-12T03:15:19.311Z,83.65
2022-11-12T03:17:45.728Z,80.56
2022-11-12T03:20:12.148Z,78.53
2022-11-12T03:22:38.735Z,77.77
2022-11-12T03:25:05.763Z,78.44
2022-11-12T03:27:32.112Z,80.89
2022-11-12T03:29:58.589Z,81.23
2022-11-12T03:32:24.995Z,79.96
2022-11-12T03:34:55.299Z,78.04
2022-11-12T03:37:22.063Z,80.21
2022-11-12T03:39:48.442Z,81.81
2022-11-12T03:42:14.782Z,81.33
2022-11-12T03:44:41.247Z,80.37
2022-11-12T03:47:07.612Z,78.73
2022-11-12T03:49:33.947Z,79.99
2022-11-12T03:52:00.384Z,79.10
2022-11-12T03:54:26.738Z,77.87
2022-11-12T03:56:53.087Z,80.28
2022-11-12T03:59:19.425Z,83.34
2022-11-12T04:01:45.821Z,83.92
2022-11-12T04:04:12.333Z,83.88
2022-11-12T04:06:57.289Z,85.30
2022-11-12T04:09:23.714Z,87.34
2022-11-12T04:11:50.059Z,87.96
2022-11-12T04:14:16.519Z,87.57
2022-11-12T04:17:01.314Z,88.75
2022-11-12T04:19:46.195Z,90.50
2022-11-12T04:22:12.577Z,91.29
2022-11-12T04:24:58.735Z,90.16
2022-11-12T04:27:28.961Z,90.08
2022-11-12T04:30:13.935Z,90.78
2022-11-12T04:33:01.260Z,92.16
2022-11-12T04:35:27.660Z,91.54
2022-11-12T04:37:54.283Z,91.32
2022-11-12T04:40:43.402Z,90.03
2022-11-12T04:43:30.568Z,89.47
2022-11-12T04:45:57.008Z,89.83
2022-11-12T04:48:23.926Z,90.50
2022-11-12T04:50:55.510Z,90.25
2022-11-12T04:53:22.157Z,90.83
2022-11-12T04:55:52.071Z,91.27
2022-11-12T04:58:18.483Z,91.76
2022-11-12T05:00:44.831Z,93.17
2022-11-12T05:03:11.191Z,94.88
2022-11-12T05:05:37.548Z,94.80
2022-11-12T05:08:03.941Z,95.94
2022-11-12T05:10:30.859Z,94.58
2022-11-12T05:12:57.202Z,92.37
2022-11-12T05:15:23.579Z,92.42
2022-11-12T05:17:49.984Z,91.99
2022-11-12T05:20:16.766Z,90.99
2022-11-12T05:22:50.453Z,92.43
2022-11-12T05:25:20.836Z,93.20
2022-11-12T05:27:47.187Z,95.31
2022-11-12T05:30:13.934Z,95.60
2022-11-12T05:32:40.292Z,95.05
2022-11-12T05:35:07.336Z,94.59
2022-11-12T05:37:33.766Z,94.66
2022-11-12T05:40:00.143Z,93.28
2022-11-12T05:42:26.633Z,93.36
2022-11-12T05:44:52.983Z,85.79
2022-11-12T05:47:19.333Z,82.31
2022-11-12T05:49:45.792Z,84.08
2022-11-12T05:52:12.152Z,82.65
2022-11-12T05:54:38.489Z,83.00
2022-11-12T05:57:04.848Z,84.53
2022-11-12T05:59:31.276Z,87.89
2022-11-12T06:01:57.641Z,89.82
2022-11-12T06:04:24.469Z,89.04
2022-11-12T06:06:50.955Z,89.19
2022-11-12T06:09:17.357Z,85.63
2022-11-12T06:11:43.790Z,84.80
2022-11-12T06:14:10.224Z,86.07
2022-11-12T06:16:36.567Z,82.75
2022-11-12T06:19:03.058Z,80.82
2022-11-12T06:21:29.409Z,82.06
2022-11-12T06:23:59.523Z,80.21
2022-11-12T06:26:28.208Z,78.61
2022-11-12T06:28:54.666Z,75.47
2022-11-12T06:31:21.176Z,74.82
2022-11-12T06:33:47.783Z,76.67
2022-11-12T06:36:15.178Z,77.38
2022-11-12T06:38:41.643Z,78.00
2022-11-12T06:41:09.193Z,79.84
2022-11-12T06:43:35.788Z,81.07
2022-11-12T06:46:02.864Z,81.51
2022-11-12T06:48:29.784Z,78.27
2022-11-12T06:50:57.142Z,77.04
2022-11-12T06:53:24.247Z,76.35
2022-11-12T06:55:50.654Z,75.76
2022-11-12T06:58:17.018Z,70.52
2022-11-12T07:00:43.501Z,69.33
2022-11-12T07:03:10.040Z,68.77
2022-11-12T07:05:39.136Z,67.35
2022-11-12T07:08:06.023Z,66.96
2022-11-12T07:10:32.393Z,63.58
2022-11-12T07:12:58.945Z,64.83
2022-11-12T07:15:25.363Z,65.38
2022-11-12T07:17:51.748Z,66.75
2022-11-12T07:20:18.122Z,68.03
2022-11-12T07:22:44.561Z,66.91
2022-11-12T07:25:10.914Z,63.78
2022-11-12T07:27:37.356Z,63.15
2022-11-12T07:30:13.037Z,60.19
2022-11-12T07:32:44.833Z,57.49
2022-11-12T07:35:13.647Z,57.03
2022-11-12T07:37:39.991Z,58.09
2022-11-12T07:40:06.916Z,58.29
2022-11-12T07:42:34.492Z,56.62
2022-11-12T07:45:00.910Z,55.64
2022-11-12T07:47:27.557Z,52.76
2022-11-12T07:49:54.007Z,44.05
2022-11-12T07:52:20.827Z,35.85
2022-11-12T07:54:47.194Z,31.90
2022-11-12T07:57:13.577Z,21.98
2022-11-12T07:59:45.668Z,21.40
2022-11-12T08:02:12.606Z,21.28
2022-11-12T08:04:38.960Z,21.09
2022-11-12T08:07:05.414Z,21.39
2022-11-12T08:09:32.001Z,21.74
2022-11-12T08:11:58.465Z,21.42
2022-11-12T08:14:24.840Z,18.48
2022-11-12T08:16:54.108Z,18.90
2022-11-12T08:19:20.539Z,18.40
2022-11-12T08:21:47.191Z,17.57
2022-11-12T08:24:13.601Z,16.69
2022-11-12T08:26:40.040Z,16.42
2022-11-12T08:29:08.643Z,15.60
2022-11-12T08:31:35.400Z,16.04
2022-11-12T08:34:11.926Z,15.57
2022-11-12T08:36:39.185Z,15.64
2022-11-12T08:39:05.665Z,16.19
2022-11-12T08:41:32.496Z,16.21
2022-11-12T08:44:01.842Z,16.48
2022-11-12T08:46:30.601Z,18.78
2022-11-12T08:48:56.956Z,13.99
2022-11-12T08:51:23.348Z,10.52
2022-11-12T08:53:49.716Z,9.31
2022-11-12T08:56:16.100Z,8.35
2022-11-12T08:58:42.489Z,6.24
2022-11-12T09:01:09.009Z,3.37
2022-11-12T09:03:35.379Z,2.77
2022-11-12T09:06:05.212Z,1.79
2022-11-12T09:08:32.996Z,1.79
2022-11-12T09:10:59.389Z,0.35
2022-11-12T09:13:25.810Z,0.00
2022-11-12T09:15:59.233Z,0.45
2022-11-12T09:18:26.034Z,1.18
2022-11-12T09:20:52.631Z,1.67
2022-11-12T09:23:18.997Z,2.06
2022-11-12T09:25:45.368Z,3.23
2022-11-12T09:28:15.836Z,3.41
2022-11-12T09:30:47.064Z,3.84
2022-11-12T09:33:14.536Z,4.72
2022-11-12T09:35:41.066Z,4.78
2022-11-12T09:38:07.430Z,5.54
2022-11-12T09:40:40.041Z,6.58
2022-11-12T09:43:35.797Z,5.86
2022-11-12T09:49:02.773Z,8.11
2022-11-12T09:51:34.144Z,9.31
2022-11-12T09:54:33.347Z,9.56
2022-11-12T09:56:59.730Z,9.59
2022-11-12T09:59:30.707Z,11.59
2022-11-12T10:02:05.157Z,14.73
2022-11-12T10:04:55.985Z,12.05
2022-11-12T10:07:34.464Z,13.41
2022-11-12T10:10:30.085Z,12.95
2022-11-12T10:13:21.025Z,20.51
2022-11-12T10:16:28.850Z,21.56
2022-11-12T10:19:17.822Z,21.68
2022-11-12T10:22:06.054Z,21.91
2022-11-12T10:24:35.256Z,26.95
2022-11-12T10:27:10.558Z,31.87
2022-11-12T10:29:41.020Z,45.71
2022-11-12T10:32:10.475Z,50.68
2022-11-12T10:34:36.835Z,53.28
2022-11-12T10:37:27.343Z,50.11
2022-11-12T10:39:53.738Z,57.41
2022-11-12T10:42:21.368Z,61.10
2022-11-12T10:44:48.024Z,61.86
2022-11-12T10:47:33.787Z,72.13
2022-11-12T10:50:06.318Z,74.76
2022-11-12T10:52:32.756Z,74.38
2022-11-12T10:55:17.875Z,73.92
2022-11-12T10:57:44.405Z,77.47
2022-11-12T11:00:14.108Z,75.94
2022-11-12T11:02:51.738Z,65.57
2022-11-12T11:05:38.130Z,63.73
2022-11-12T11:08:05.239Z,62.26
2022-11-12T11:10:33.715Z,64.77
2022-11-12T11:13:14.556Z,70.32
2022-11-12T11:15:40.933Z,85.45
2022-11-12T11:18:10.846Z,87.80
2022-11-12T11:20:45.186Z,94.11
2022-11-12T11:23:46.042Z,91.59
2022-11-12T11:26:38.979Z,93.96
2022-11-12T11:29:22.945Z,96.47
2022-11-12T11:31:55.578Z,100.00
2022-11-12T11:34:40.257Z,100.00
2022-11-12T11:37:26.862Z,100.00
2022-11-12T11:40:10.730Z,100.00
2022-11-12T11:42:43.272Z,100.00
2022-11-12T11:45:13.268Z,100.00
2022-11-12T11:48:02.264Z,100.00
2022-11-12T11:50:33.729Z,100.00
2022-11-12T11:53:13.044Z,100.00
2022-11-12T11:55:58.142Z,100.00
2022-11-12T11:58:36.704Z,100.00
2022-11-12T12:01:25.734Z,100.00
2022-11-12T12:03:55.195Z,100.00
2022-11-12T12:06:23.345Z,100.00
2022-11-12T12:09:11.939Z,100.00
2022-11-12T12:12:12.069Z,100.00
2022-11-12T12:15:07.628Z,100.00
2022-11-12T12:17:40.655Z,100.00
2022-11-12T12:20:20.134Z,100.00
2022-11-12T12:23:20.524Z,100.00
2022-11-12T12:25:48.180Z,100.00
2022-11-12T12:28:38.923Z,100.00
2022-11-12T12:31:12.114Z,100.00
2022-11-12T12:33:42.636Z,100.00
2022-11-12T12:36:14.536Z,100.00
2022-11-12T12:38:54.868Z,100.00
2022-11-12T12:41:29.753Z,100.00
2022-11-12T12:44:03.319Z,100.00
2022-11-12T12:46:31.215Z,100.00
2022-11-12T12:48:57.875Z,100.00
2022-11-12T12:51:24.264Z,100.00
2022-11-12T12:53:50.646Z,100.00
2022-11-12T12:56:23.127Z,100.00
2022-11-12T12:58:50.057Z,100.00
2022-11-12T13:01:22.775Z,100.00
2022-11-12T13:03:54.494Z,100.00
2022-11-12T13:06:23.936Z,100.00
2022-11-12T13:09:01.641Z,100.00
2022-11-12T13:12:00.116Z,100.00
2022-11-12T13:14:35.404Z,100.00
2022-11-12T13:17:10.794Z,100.00
2022-11-12T13:19:44.331Z,100.00
2022-11-12T13:22:17.000Z,100.00
2022-11-12T13:25:08.409Z,100.00
2022-11-12T13:27:44.220Z,100.00
2022-11-12T13:30:30.878Z,100.00
2022-11-12T13:32:57.976Z,100.00
2022-11-12T13:35:24.400Z,100.00
2022-11-12T13:38:02.949Z,100.00
2022-11-12T13:40:29.315Z,100.00
2022-11-12T13:43:03.843Z,100.00
2022-11-12T13:45:30.271Z,100.00
2022-11-12T13:47:59.552Z,100.00
2022-11-12T13:50:25.970Z,100.00
2022-11-12T13:52:52.360Z,100.00
2022-11-12T13:55:20.089Z,100.00
2022-11-12T13:57:53.476Z,100.00
2022-11-12T14:00:27.660Z,100.00
2022-11-12T14:03:00.732Z,100.00
2022-11-12T14:05:29.307Z,100.00
2022-11-12T14:08:08.641Z,100.00
2022-11-12T14:10:42.158Z,100.00
2022-11-12T14:13:49.003Z,100.00
2022-11-12T14:16:51.127Z,100.00
2022-11-12T14:19:25.739Z,100.00
2022-11-12T14:22:18.795Z,100.00
2022-11-12T14:24:46.157Z,100.00
2022-11-12T14:27:28.766Z,100.00
2022-11-12T14:30:29.571Z,100.00
2022-11-12T14:33:00.508Z,100.00
2022-11-12T14:35:33.239Z,100.00
2022-11-12T14:38:03.192Z,100.00
2022-11-12T14:40:31.884Z,100.00
2022-11-12T14:42:58.341Z,100.00
2022-11-12T14:45:24.814Z,100.00
2022-11-12T14:47:52.092Z,100.00
2022-11-12T14:50:22.588Z,100.00
2022-11-12T14:52:49.842Z,100.00
2022-11-12T14:55:18.676Z,100.00
2022-11-12T14:57:45.168Z,99.25
2022-11-12T15:00:35.786Z,98.03
2022-11-12T15:03:05.330Z,100.00
2022-11-12T15:05:31.892Z,99.98
2022-11-12T15:08:25.953Z,100.00
2022-11-12T15:10:52.317Z,100.00
2022-11-12T15:13:24.351Z,100.00
2022-11-12T15:16:07.535Z,100.00
2022-11-12T15:18:34.253Z,100.00
2022-11-12T15:21:06.581Z,100.00
2022-11-12T15:23:32.940Z,100.00
2022-11-12T15:26:00.242Z,100.00
2022-11-12T15:28:26.679Z,100.00
2022-11-12T15:31:15.899Z,100.00
2022-11-12T15:33:42.252Z,100.00
2022-11-12T15:36:19.112Z,100.00
2022-11-12T15:38:49.867Z,99.98
2022-11-12T15:41:25.155Z,100.00
2022-11-12T15:43:54.591Z,98.92
2022-11-12T15:46:20.963Z,91.06
2022-11-12T15:48:54.455Z,83.86
2022-11-12T15:51:22.406Z,85.32
2022-11-12T15:53:48.833Z,89.25
2022-11-12T15:56:17.275Z,90.88
2022-11-12T15:58:43.665Z,89.37
2022-11-12T16:01:10.756Z,87.79
2022-11-12T16:03:37.153Z,91.38
2022-11-12T16:06:08.613Z,92.40
2022-11-12T16:08:35.782Z,90.03
2022-11-12T16:11:02.125Z,89.13
2022-11-12T16:13:31.014Z,90.17
2022-11-12T16:15:57.517Z,87.19
2022-11-12T16:18:23.923Z,87.91
2022-11-12T16:20:50.382Z,89.33
2022-11-12T16:23:16.766Z,87.57
2022-11-12T16:25:43.350Z,88.88
2022-11-12T16:28:13.056Z,87.81
2022-11-12T16:30:39.433Z,89.69
2022-11-12T16:33:05.793Z,90.19
2022-11-12T16:35:33.424Z,88.29
2022-11-12T16:37:59.809Z,85.14
2022-11-12T16:40:28.213Z,84.88
2022-11-12T16:42:54.630Z,87.12
2022-11-12T16:45:25.242Z,88.25
2022-11-12T16:47:55.770Z,84.22
2022-11-12T16:50:23.740Z,83.43
2022-11-12T16:52:50.159Z,86.90
2022-11-12T16:55:16.704Z,89.28
2022-11-12T16:57:43.168Z,90.43
2022-11-12T17:00:14.250Z,82.52
2022-11-12T17:02:46.098Z,73.60
2022-11-12T17:05:19.792Z,66.40
2022-11-12T17:07:46.815Z,70.12
2022-11-12T17:10:13.246Z,48.55
2022-11-12T17:12:39.630Z,43.26
2022-11-12T17:15:06.658Z,46.38
2022-11-12T17:17:33.064Z,49.63
2022-11-12T17:19:59.509Z,44.47
2022-11-12T17:22:26.383Z,26.21
2022-11-12T17:24:52.729Z,19.62
2022-11-12T17:27:19.116Z,21.26
2022-11-12T17:29:45.469Z,24.40
2022-11-12T17:32:11.845Z,27.20
2022-11-12T17:34:38.202Z,28.12
2022-11-12T17:37:04.576Z,18.26
2022-11-12T17:39:30.956Z,16.88
2022-11-12T17:41:57.374Z,16.32
2022-11-12T17:44:23.742Z,22.49
2022-11-12T17:46:50.439Z,25.27
2022-11-12T17:49:16.939Z,24.74
2022-11-12T17:51:43.313Z,25.27
2022-11-12T17:54:09.804Z,26.20
2022-11-12T17:56:37.227Z,30.93
2022-11-12T17:59:03.898Z,33.67
2022-11-12T18:01:32.385Z,32.95
2022-11-12T18:03:58.825Z,36.39
2022-11-12T18:06:26.072Z,37.21
2022-11-12T18:08:59.666Z,39.56
2022-11-12T18:11:26.995Z,40.27
2022-11-12T18:13:53.588Z,47.90
2022-11-12T18:16:25.098Z,47.34
2022-11-12T18:18:53.871Z,45.16
2022-11-12T18:21:20.268Z,47.36
2022-11-12T18:23:46.642Z,51.97
2022-11-12T18:26:18.043Z,54.43
2022-11-12T18:28:45.240Z,47.23
2022-11-12T18:31:12.117Z,43.41
2022-11-12T18:33:38.663Z,43.64
2022-11-12T18:36:12.111Z,41.90
2022-11-12T18:38:38.520Z,40.69
2022-11-12T18:41:09.483Z,42.43
2022-11-12T18:43:36.209Z,31.56
2022-11-12T18:46:02.714Z,24.44
2022-11-12T18:48:29.880Z,27.46
2022-11-12T18:51:00.020Z,30.82
2022-11-12T18:53:29.921Z,33.98
2022-11-12T18:55:59.894Z,28.33
2022-11-12T18:58:31.966Z,24.30
2022-11-12T19:01:02.608Z,15.94
2022-11-12T19:03:29.277Z,14.04
2022-11-12T19:05:59.420Z,12.90
2022-11-12T19:08:26.478Z,13.70
2022-11-12T19:11:02.644Z,14.90
2022-11-12T19:13:29.538Z,15.47
2022-11-12T19:15:56.322Z,18.86
2022-11-12T19:18:22.673Z,24.84
2022-11-12T19:20:49.117Z,30.35
2022-11-12T19:23:15.550Z,33.00
2022-11-12T19:25:41.937Z,33.67
2022-11-12T19:28:08.290Z,34.62
2022-11-12T19:30:34.678Z,36.91
2022-11-12T19:33:01.030Z,33.06
2022-11-12T19:35:27.479Z,31.96
2022-11-12T19:37:53.829Z,29.89
2022-11-12T19:40:20.224Z,33.86
2022-11-12T19:42:47.940Z,24.54
2022-11-12T19:45:14.444Z,20.56
2022-11-12T19:47:40.797Z,20.39
2022-11-12T19:50:07.747Z,22.21
2022-11-12T19:52:34.136Z,22.71
2022-11-12T19:55:00.964Z,21.52
2022-11-12T19:57:28.975Z,23.31
2022-11-12T19:59:55.324Z,24.65
2022-11-12T20:02:21.736Z,26.62
2022-11-12T20:04:48.077Z,29.82
2022-11-12T20:07:14.527Z,31.32
2022-11-12T20:09:40.995Z,27.84
2022-11-12T20:12:07.721Z,27.53
2022-11-12T20:14:34.114Z,22.09
2022-11-12T20:17:00.510Z,23.23
2022-11-12T20:19:27.680Z,21.09
2022-11-12T20:21:54.046Z,20.73
2022-11-12T20:24:20.464Z,24.25
2022-11-12T20:26:48.575Z,27.40
2022-11-12T20:29:17.325Z,28.22
2022-11-12T20:31:43.791Z,24.92
2022-11-12T20:34:16.238Z,24.98
2022-11-12T20:36:42.640Z,24.01
2022-11-12T20:39:09.077Z,25.03
2022-11-12T20:41:35.452Z,25.79
2022-11-12T20:44:04.988Z,16.84
2022-11-12T20:46:33.735Z,11.74
2022-11-12T20:49:00.124Z,9.90
2022-11-12T20:51:32.211Z,10.04
2022-11-12T20:54:01.089Z,10.12
2022-11-12T20:56:33.358Z,10.61
2022-11-12T20:59:02.693Z,11.66
2022-11-12T21:01:29.574Z,10.43
2022-11-12T21:03:56.996Z,11.07
2022-11-12T21:06:25.107Z,11.42
2022-11-12T21:08:51.571Z,12.57
2022-11-12T21:11:20.149Z,11.29
2022-11-12T21:13:46.580Z,7.86
2022-11-12T21:16:15.921Z,5.72
2022-11-12T21:18:42.441Z,5.09
2022-11-12T21:21:13.363Z,4.98
2022-11-12T21:23:43.407Z,4.96
2022-11-12T21:26:09.765Z,5.18
2022-11-12T21:28:38.964Z,5.75
2022-11-12T21:31:09.306Z,6.47
2022-11-12T21:33:36.711Z,7.46
2022-11-12T21:36:05.353Z,7.65
2022-11-12T21:38:31.864Z,8.17
2022-11-12T21:41:22.327Z,8.85
2022-11-12T21:43:48.738Z,9.22
2022-11-12T21:46:19.994Z,9.66
2022-11-12T21:48:48.998Z,10.06
2022-11-12T21:51:18.883Z,11.16
2022-11-12T21:53:45.273Z,10.73
2022-11-12T21:56:13.422Z,11.37
2022-11-12T21:58:39.878Z,12.13
2022-11-12T22:01:10.115Z,12.83
2022-11-12T22:03:36.594Z,11.79
2022-11-12T22:06:03.286Z,11.14
2022-11-12T22:08:30.198Z,10.20
2022-11-12T22:11:01.888Z,8.56
2022-11-12T22:13:28.284Z,7.83
2022-11-12T22:15:57.323Z,7.01
2022-11-12T22:18:26.901Z,5.80
2022-11-12T22:21:15.981Z,3.00
2022-11-12T22:23:42.359Z,0.00
2022-11-12T22:26:13.989Z,0.00
2022-11-12T22:28:40.534Z,0.00
2022-11-12T22:31:09.391Z,0.00
2022-11-12T22:33:38.702Z,0.00
2022-11-12T22:36:12.308Z,0.00
2022-11-12T22:38:43.382Z,0.00
2022-11-12T22:41:17.761Z,0.00
2022-11-12T22:43:47.138Z,0.00
2022-11-12T22:46:15.221Z,0.00
2022-11-12T22:48:45.926Z,0.00
2022-11-12T22:51:19.543Z,0.00
2022-11-12T22:53:46.122Z,0.17
2022-11-12T22:56:14.993Z,0.53
2022-11-12T22:58:42.711Z,1.68
2022-11-12T23:01:27.334Z,3.02
2022-11-12T23:04:00.888Z,4.11
2022-11-12T23:06:30.544Z,6.45
2022-11-12T23:08:58.986Z,4.49
2022-11-12T23:11:26.152Z,4.59
2022-11-12T23:13:53.070Z,5.18
2022-11-12T23:16:21.693Z,5.08
2022-11-12T23:18:48.147Z,5.34
2022-11-12T23:21:19.186Z,5.86
2022-11-12T23:23:45.620Z,5.89
2022-11-12T23:26:14.288Z,4.28
2022-11-12T23:28:40.685Z,4.30
2022-11-12T23:31:11.220Z,3.46
2022-11-12T23:33:37.779Z,2.97
2022-11-12T23:36:07.896Z,1.80
2022-11-12T23:38:34.360Z,1.47
2022-11-12T23:41:00.770Z,0.25
2022-11-12T23:43:27.157Z,0.52
2022-11-12T23:45:53.747Z,0.56
2022-11-12T23:48:20.186Z,0.00
2022-11-12T23:50:47.145Z,0.00
2022-11-12T23:53:13.613Z,0.00
2022-11-12T23:55:43.420Z,0.00
2022-11-12T23:58:09.985Z,0.00
